sensor_id;sensor_type;location;lat;lon;timestamp;P1;durP1;ratioP1;P2;durP2;ratioP2
32746;SDS011;19118;50.860;13.662;2023-02-05T00:00:05;9.38;;;1.63;;
32746;SDS011;19118;50.860;13.662;2023-02-05T00:05:05;11.10;;;1.45;;
32746;SDS011;19118;50.860;13.662;2023-02-05T00:10:06;4.97;;;1.73;;
32746;SDS011;19118;50.860;13.662;2023-02-05T00:15:07;2.97;;;1.48;;
32746;SDS011;19118;50.860;13.662;2023-02-05T00:20:08;4.13;;;2.05;;
32746;SDS011;19118;50.860;13.662;2023-02-05T00:25:08;7.68;;;2.08;;
32746;SDS011;19118;50.860;13.662;2023-02-05T00:30:09;5.85;;;1.88;;
32746;SDS011;19118;50.860;13.662;2023-02-05T00:35:10;5.70;;;1.98;;
32746;SDS011;19118;50.860;13.662;2023-02-05T00:40:11;2.53;;;1.65;;
32746;SDS011;19118;50.860;13.662;2023-02-05T00:45:11;2.97;;;1.65;;
32746;SDS011;19118;50.860;13.662;2023-02-05T00:50:12;5.82;;;2.15;;
32746;SDS011;19118;50.860;13.662;2023-02-05T00:55:12;2.67;;;1.83;;
32746;SDS011;19118;50.860;13.662;2023-02-05T01:00:12;7.78;;;2.00;;
32746;SDS011;19118;50.860;13.662;2023-02-05T01:05:13;9.48;;;2.10;;
32746;SDS011;19118;50.860;13.662;2023-02-05T01:10:14;6.93;;;2.10;;
32746;SDS011;19118;50.860;13.662;2023-02-05T01:15:14;4.10;;;1.67;;
32746;SDS011;19118;50.860;13.662;2023-02-05T01:20:15;4.55;;;1.75;;
32746;SDS011;19118;50.860;13.662;2023-02-05T01:25:16;3.28;;;1.65;;
32746;SDS011;19118;50.860;13.662;2023-02-05T01:30:18;5.00;;;2.35;;
32746;SDS011;19118;50.860;13.662;2023-02-05T01:35:18;4.00;;;2.05;;
32746;SDS011;19118;50.860;13.662;2023-02-05T01:40:20;5.55;;;2.28;;
32746;SDS011;19118;50.860;13.662;2023-02-05T01:50:22;3.97;;;2.17;;
32746;SDS011;19118;50.860;13.662;2023-02-05T01:55:26;4.20;;;1.73;;
32746;SDS011;19118;50.860;13.662;2023-02-05T02:00:28;7.55;;;2.35;;
32746;SDS011;19118;50.860;13.662;2023-02-05T02:05:29;4.95;;;1.83;;
32746;SDS011;19118;50.860;13.662;2023-02-05T02:10:29;7.40;;;2.05;;
32746;SDS011;19118;50.860;13.662;2023-02-05T02:15:31;6.78;;;2.40;;
32746;SDS011;19118;50.860;13.662;2023-02-05T02:20:32;7.03;;;2.55;;
32746;SDS011;19118;50.860;13.662;2023-02-05T02:25:54;5.10;;;1.85;;
32746;SDS011;19118;50.860;13.662;2023-02-05T02:31:18;13.07;;;3.05;;
32746;SDS011;19118;50.860;13.662;2023-02-05T02:36:32;6.88;;;2.80;;
32746;SDS011;19118;50.860;13.662;2023-02-05T02:41:39;11.02;;;2.80;;
32746;SDS011;19118;50.860;13.662;2023-02-05T02:46:46;12.73;;;3.10;;
32746;SDS011;19118;50.860;13.662;2023-02-05T02:51:50;8.02;;;2.60;;
32746;SDS011;19118;50.860;13.662;2023-02-05T02:56:53;7.35;;;2.17;;
32746;SDS011;19118;50.860;13.662;2023-02-05T03:01:57;7.55;;;2.63;;
32746;SDS011;19118;50.860;13.662;2023-02-05T03:07:36;3.10;;;1.98;;
32746;SDS011;19118;50.860;13.662;2023-02-05T03:12:35;10.68;;;2.75;;
32746;SDS011;19118;50.860;13.662;2023-02-05T03:17:35;6.47;;;2.85;;
32746;SDS011;19118;50.860;13.662;2023-02-05T03:22:38;6.53;;;2.30;;
32746;SDS011;19118;50.860;13.662;2023-02-05T03:27:38;4.13;;;2.05;;
32746;SDS011;19118;50.860;13.662;2023-02-05T03:38:18;7.55;;;2.15;;
32746;SDS011;19118;50.860;13.662;2023-02-05T03:48:58;8.77;;;2.08;;
32746;SDS011;19118;50.860;13.662;2023-02-05T03:54:06;13.25;;;2.03;;
32746;SDS011;19118;50.860;13.662;2023-02-05T03:59:13;9.18;;;2.88;;
32746;SDS011;19118;50.860;13.662;2023-02-05T04:04:16;4.28;;;2.22;;
32746;SDS011;19118;50.860;13.662;2023-02-05T04:09:17;5.00;;;2.53;;
32746;SDS011;19118;50.860;13.662;2023-02-05T04:14:19;7.32;;;2.92;;
32746;SDS011;19118;50.860;13.662;2023-02-05T04:19:19;12.05;;;3.53;;
32746;SDS011;19118;50.860;13.662;2023-02-05T04:24:20;7.50;;;3.28;;
32746;SDS011;19118;50.860;13.662;2023-02-05T04:29:21;11.98;;;3.72;;
32746;SDS011;19118;50.860;13.662;2023-02-05T04:34:24;13.73;;;3.33;;
32746;SDS011;19118;50.860;13.662;2023-02-05T04:39:24;7.57;;;3.00;;
32746;SDS011;19118;50.860;13.662;2023-02-05T04:44:25;15.15;;;4.70;;
32746;SDS011;19118;50.860;13.662;2023-02-05T04:49:25;9.77;;;3.78;;
32746;SDS011;19118;50.860;13.662;2023-02-05T04:54:26;12.05;;;3.67;;
32746;SDS011;19118;50.860;13.662;2023-02-05T04:59:27;11.75;;;4.22;;
32746;SDS011;19118;50.860;13.662;2023-02-05T05:04:29;8.85;;;4.05;;
32746;SDS011;19118;50.860;13.662;2023-02-05T05:09:29;7.00;;;3.10;;
32746;SDS011;19118;50.860;13.662;2023-02-05T05:14:30;17.48;;;3.78;;
32746;SDS011;19118;50.860;13.662;2023-02-05T05:19:30;10.48;;;3.58;;
32746;SDS011;19118;50.860;13.662;2023-02-05T05:24:31;11.18;;;3.17;;
32746;SDS011;19118;50.860;13.662;2023-02-05T05:29:31;6.45;;;3.50;;
32746;SDS011;19118;50.860;13.662;2023-02-05T05:34:32;4.75;;;2.70;;
32746;SDS011;19118;50.860;13.662;2023-02-05T05:39:32;4.55;;;2.22;;
32746;SDS011;19118;50.860;13.662;2023-02-05T05:44:51;6.72;;;3.00;;
32746;SDS011;19118;50.860;13.662;2023-02-05T05:49:52;10.73;;;2.70;;
32746;SDS011;19118;50.860;13.662;2023-02-05T05:54:52;9.80;;;2.33;;
32746;SDS011;19118;50.860;13.662;2023-02-05T05:59:52;8.95;;;2.72;;
32746;SDS011;19118;50.860;13.662;2023-02-05T06:04:53;5.22;;;2.45;;
32746;SDS011;19118;50.860;13.662;2023-02-05T06:09:53;6.22;;;2.42;;
32746;SDS011;19118;50.860;13.662;2023-02-05T06:14:54;8.25;;;1.38;;
32746;SDS011;19118;50.860;13.662;2023-02-05T06:19:54;2.40;;;0.98;;
32746;SDS011;19118;50.860;13.662;2023-02-05T06:24:54;2.70;;;1.30;;
32746;SDS011;19118;50.860;13.662;2023-02-05T06:29:55;2.17;;;1.15;;
32746;SDS011;19118;50.860;13.662;2023-02-05T06:34:55;3.00;;;1.70;;
32746;SDS011;19118;50.860;13.662;2023-02-05T06:39:55;7.88;;;2.45;;
32746;SDS011;19118;50.860;13.662;2023-02-05T06:44:56;4.40;;;2.60;;
32746;SDS011;19118;50.860;13.662;2023-02-05T06:49:56;2.20;;;1.58;;
32746;SDS011;19118;50.860;13.662;2023-02-05T06:54:56;4.28;;;1.48;;
32746;SDS011;19118;50.860;13.662;2023-02-05T06:59:57;3.67;;;1.35;;
32746;SDS011;19118;50.860;13.662;2023-02-05T07:04:57;8.82;;;1.65;;
32746;SDS011;19118;50.860;13.662;2023-02-05T07:09:58;5.05;;;2.75;;
32746;SDS011;19118;50.860;13.662;2023-02-05T07:14:58;10.10;;;5.68;;
32746;SDS011;19118;50.860;13.662;2023-02-05T07:19:58;3.85;;;2.80;;
32746;SDS011;19118;50.860;13.662;2023-02-05T07:24:59;7.32;;;3.55;;
32746;SDS011;19118;50.860;13.662;2023-02-05T07:29:59;10.05;;;3.65;;
32746;SDS011;19118;50.860;13.662;2023-02-05T07:35:00;5.47;;;2.90;;
32746;SDS011;19118;50.860;13.662;2023-02-05T07:40:00;40.78;;;15.32;;
32746;SDS011;19118;50.860;13.662;2023-02-05T07:45:01;16.35;;;7.85;;
32746;SDS011;19118;50.860;13.662;2023-02-05T07:50:02;2.58;;;1.88;;
32746;SDS011;19118;50.860;13.662;2023-02-05T07:55:03;7.20;;;3.65;;
32746;SDS011;19118;50.860;13.662;2023-02-05T08:00:04;13.40;;;8.38;;
32746;SDS011;19118;50.860;13.662;2023-02-05T08:05:12;8.77;;;4.07;;
32746;SDS011;19118;50.860;13.662;2023-02-05T08:10:13;10.00;;;4.43;;
32746;SDS011;19118;50.860;13.662;2023-02-05T08:15:14;3.67;;;2.00;;
32746;SDS011;19118;50.860;13.662;2023-02-05T08:20:14;3.20;;;1.73;;
32746;SDS011;19118;50.860;13.662;2023-02-05T08:25:14;2.88;;;1.58;;
32746;SDS011;19118;50.860;13.662;2023-02-05T08:30:16;1.85;;;1.10;;
32746;SDS011;19118;50.860;13.662;2023-02-05T08:35:17;2.53;;;1.08;;
32746;SDS011;19118;50.860;13.662;2023-02-05T08:40:17;3.90;;;2.10;;
32746;SDS011;19118;50.860;13.662;2023-02-05T08:45:18;4.03;;;1.65;;
32746;SDS011;19118;50.860;13.662;2023-02-05T08:50:19;7.00;;;2.47;;
32746;SDS011;19118;50.860;13.662;2023-02-05T08:55:20;1.42;;;1.08;;
32746;SDS011;19118;50.860;13.662;2023-02-05T09:00:20;1.42;;;1.20;;
32746;SDS011;19118;50.860;13.662;2023-02-05T09:05:21;5.55;;;2.05;;
32746;SDS011;19118;50.860;13.662;2023-02-05T09:10:21;4.43;;;1.80;;
32746;SDS011;19118;50.860;13.662;2023-02-05T09:15:21;3.10;;;1.65;;
32746;SDS011;19118;50.860;13.662;2023-02-05T09:20:22;2.67;;;1.58;;
32746;SDS011;19118;50.860;13.662;2023-02-05T09:25:22;3.53;;;1.40;;
32746;SDS011;19118;50.860;13.662;2023-02-05T09:30:23;2.73;;;1.40;;
32746;SDS011;19118;50.860;13.662;2023-02-05T09:35:23;3.42;;;1.13;;
32746;SDS011;19118;50.860;13.662;2023-02-05T09:40:25;15.70;;;8.93;;
32746;SDS011;19118;50.860;13.662;2023-02-05T09:50:54;1.55;;;1.17;;
32746;SDS011;19118;50.860;13.662;2023-02-05T09:55:56;5.68;;;2.92;;
32746;SDS011;19118;50.860;13.662;2023-02-05T10:01:00;8.73;;;1.90;;
32746;SDS011;19118;50.860;13.662;2023-02-05T10:11:41;2.30;;;1.30;;
32746;SDS011;19118;50.860;13.662;2023-02-05T10:16:51;12.77;;;2.22;;
32746;SDS011;19118;50.860;13.662;2023-02-05T10:22:13;19.45;;;8.90;;
32746;SDS011;19118;50.860;13.662;2023-02-05T10:27:22;14.10;;;3.55;;
32746;SDS011;19118;50.860;13.662;2023-02-05T10:37:56;2.17;;;1.20;;
32746;SDS011;19118;50.860;13.662;2023-02-05T10:43:00;6.63;;;1.23;;
32746;SDS011;19118;50.860;13.662;2023-02-05T10:53:22;23.88;;;6.95;;
32746;SDS011;19118;50.860;13.662;2023-02-05T11:03:48;7.10;;;2.70;;
32746;SDS011;19118;50.860;13.662;2023-02-05T11:08:53;2.97;;;1.45;;
32746;SDS011;19118;50.860;13.662;2023-02-05T11:13:55;8.73;;;1.77;;
32746;SDS011;19118;50.860;13.662;2023-02-05T11:19:01;5.20;;;1.85;;
32746;SDS011;19118;50.860;13.662;2023-02-05T11:24:01;4.60;;;1.75;;
32746;SDS011;19118;50.860;13.662;2023-02-05T11:29:17;11.80;;;1.67;;
32746;SDS011;19118;50.860;13.662;2023-02-05T11:34:18;3.67;;;2.10;;
32746;SDS011;19118;50.860;13.662;2023-02-05T11:39:23;3.97;;;1.95;;
32746;SDS011;19118;50.860;13.662;2023-02-05T11:44:36;2.92;;;1.40;;
32746;SDS011;19118;50.860;13.662;2023-02-05T11:49:48;3.00;;;1.50;;
32746;SDS011;19118;50.860;13.662;2023-02-05T11:54:49;10.65;;;3.30;;
32746;SDS011;19118;50.860;13.662;2023-02-05T12:05:09;7.70;;;2.67;;
32746;SDS011;19118;50.860;13.662;2023-02-05T12:10:17;10.18;;;2.03;;
32746;SDS011;19118;50.860;13.662;2023-02-05T12:20:29;19.42;;;3.42;;
32746;SDS011;19118;50.860;13.662;2023-02-05T12:31:00;10.85;;;2.47;;
32746;SDS011;19118;50.860;13.662;2023-02-05T12:36:25;5.60;;;2.65;;
32746;SDS011;19118;50.860;13.662;2023-02-05T12:41:40;4.70;;;1.98;;
32746;SDS011;19118;50.860;13.662;2023-02-05T12:47:17;5.45;;;2.17;;
32746;SDS011;19118;50.860;13.662;2023-02-05T12:52:41;6.00;;;2.22;;
32746;SDS011;19118;50.860;13.662;2023-02-05T12:57:55;5.82;;;2.17;;
32746;SDS011;19118;50.860;13.662;2023-02-05T13:04:03;3.95;;;1.73;;
32746;SDS011;19118;50.860;13.662;2023-02-05T13:08:50;9.25;;;2.00;;
32746;SDS011;19118;50.860;13.662;2023-02-05T13:14:02;5.57;;;1.40;;
32746;SDS011;19118;50.860;13.662;2023-02-05T13:29:53;4.97;;;1.73;;
32746;SDS011;19118;50.860;13.662;2023-02-05T13:34:54;6.22;;;2.13;;
32746;SDS011;19118;50.860;13.662;2023-02-05T13:50:45;12.93;;;3.35;;
32746;SDS011;19118;50.860;13.662;2023-02-05T13:56:21;8.23;;;2.70;;
32746;SDS011;19118;50.860;13.662;2023-02-05T14:01:54;10.25;;;2.67;;
32746;SDS011;19118;50.860;13.662;2023-02-05T14:06:58;10.60;;;3.17;;
32746;SDS011;19118;50.860;13.662;2023-02-05T14:12:06;6.05;;;2.58;;
32746;SDS011;19118;50.860;13.662;2023-02-05T14:18:10;8.10;;;2.97;;
32746;SDS011;19118;50.860;13.662;2023-02-05T14:22:42;7.20;;;3.27;;
32746;SDS011;19118;50.860;13.662;2023-02-05T14:27:45;13.27;;;3.40;;
32746;SDS011;19118;50.860;13.662;2023-02-05T14:37:48;19.88;;;5.10;;
32746;SDS011;19118;50.860;13.662;2023-02-05T14:42:51;10.40;;;4.93;;
32746;SDS011;19118;50.860;13.662;2023-02-05T14:47:57;15.13;;;4.55;;
32746;SDS011;19118;50.860;13.662;2023-02-05T14:52:58;8.75;;;3.85;;
32746;SDS011;19118;50.860;13.662;2023-02-05T14:58:04;13.15;;;4.43;;
32746;SDS011;19118;50.860;13.662;2023-02-05T15:08:27;10.15;;;4.50;;
32746;SDS011;19118;50.860;13.662;2023-02-05T15:13:34;11.73;;;4.80;;
32746;SDS011;19118;50.860;13.662;2023-02-05T15:23:47;13.93;;;5.68;;
32746;SDS011;19118;50.860;13.662;2023-02-05T15:29:00;17.15;;;6.20;;
32746;SDS011;19118;50.860;13.662;2023-02-05T15:34:23;13.50;;;5.00;;
32746;SDS011;19118;50.860;13.662;2023-02-05T15:44:35;17.48;;;7.13;;
32746;SDS011;19118;50.860;13.662;2023-02-05T15:49:45;20.25;;;7.35;;
32746;SDS011;19118;50.860;13.662;2023-02-05T15:54:47;20.92;;;6.95;;
32746;SDS011;19118;50.860;13.662;2023-02-05T15:59:50;18.38;;;6.85;;
32746;SDS011;19118;50.860;13.662;2023-02-05T16:04:54;34.97;;;12.10;;
32746;SDS011;19118;50.860;13.662;2023-02-05T16:09:58;19.55;;;9.50;;
32746;SDS011;19118;50.860;13.662;2023-02-05T16:15:00;41.05;;;16.77;;
32746;SDS011;19118;50.860;13.662;2023-02-05T16:25:18;22.58;;;8.20;;
32746;SDS011;19118;50.860;13.662;2023-02-05T16:30:33;26.83;;;7.22;;
32746;SDS011;19118;50.860;13.662;2023-02-05T16:35:44;17.38;;;7.10;;
32746;SDS011;19118;50.860;13.662;2023-02-05T16:40:48;25.98;;;9.07;;
32746;SDS011;19118;50.860;13.662;2023-02-05T16:51:10;21.42;;;7.38;;
32746;SDS011;19118;50.860;13.662;2023-02-05T16:56:27;15.05;;;6.50;;
32746;SDS011;19118;50.860;13.662;2023-02-05T17:01:35;16.42;;;6.78;;
32746;SDS011;19118;50.860;13.662;2023-02-05T17:06:37;15.73;;;6.53;;
32746;SDS011;19118;50.860;13.662;2023-02-05T17:11:38;28.45;;;7.38;;
32746;SDS011;19118;50.860;13.662;2023-02-05T17:16:41;18.15;;;6.35;;
32746;SDS011;19118;50.860;13.662;2023-02-05T17:21:41;16.13;;;6.20;;
32746;SDS011;19118;50.860;13.662;2023-02-05T17:26:42;13.07;;;6.03;;
32746;SDS011;19118;50.860;13.662;2023-02-05T17:31:42;16.10;;;6.95;;
32746;SDS011;19118;50.860;13.662;2023-02-05T17:36:42;15.10;;;6.88;;
32746;SDS011;19118;50.860;13.662;2023-02-05T17:41:43;26.55;;;11.32;;
32746;SDS011;19118;50.860;13.662;2023-02-05T17:47:02;21.47;;;10.00;;
32746;SDS011;19118;50.860;13.662;2023-02-05T17:52:03;13.98;;;6.20;;
32746;SDS011;19118;50.860;13.662;2023-02-05T17:57:25;19.05;;;7.18;;
32746;SDS011;19118;50.860;13.662;2023-02-05T18:02:25;15.82;;;6.57;;
32746;SDS011;19118;50.860;13.662;2023-02-05T18:07:39;15.02;;;7.53;;
32746;SDS011;19118;50.860;13.662;2023-02-05T18:12:41;20.08;;;7.18;;
32746;SDS011;19118;50.860;13.662;2023-02-05T18:17:42;15.45;;;8.23;;
32746;SDS011;19118;50.860;13.662;2023-02-05T18:22:42;15.68;;;7.38;;
32746;SDS011;19118;50.860;13.662;2023-02-05T18:27:43;24.25;;;7.65;;
32746;SDS011;19118;50.860;13.662;2023-02-05T18:32:43;17.35;;;7.65;;
32746;SDS011;19118;50.860;13.662;2023-02-05T18:37:43;22.60;;;8.13;;
32746;SDS011;19118;50.860;13.662;2023-02-05T18:42:44;21.40;;;8.23;;
32746;SDS011;19118;50.860;13.662;2023-02-05T18:47:48;18.63;;;8.07;;
32746;SDS011;19118;50.860;13.662;2023-02-05T18:52:48;21.40;;;8.48;;
32746;SDS011;19118;50.860;13.662;2023-02-05T18:57:52;24.23;;;7.30;;
32746;SDS011;19118;50.860;13.662;2023-02-05T19:02:52;19.60;;;7.75;;
32746;SDS011;19118;50.860;13.662;2023-02-05T19:07:54;13.02;;;5.82;;
32746;SDS011;19118;50.860;13.662;2023-02-05T19:12:55;15.40;;;7.38;;
32746;SDS011;19118;50.860;13.662;2023-02-05T19:17:55;17.98;;;7.20;;
32746;SDS011;19118;50.860;13.662;2023-02-05T19:22:55;26.13;;;9.77;;
32746;SDS011;19118;50.860;13.662;2023-02-05T19:27:56;24.20;;;8.80;;
32746;SDS011;19118;50.860;13.662;2023-02-05T19:32:56;21.90;;;8.20;;
32746;SDS011;19118;50.860;13.662;2023-02-05T19:37:56;16.45;;;7.10;;
32746;SDS011;19118;50.860;13.662;2023-02-05T19:42:57;23.50;;;6.63;;
32746;SDS011;19118;50.860;13.662;2023-02-05T19:47:58;14.75;;;6.72;;
32746;SDS011;19118;50.860;13.662;2023-02-05T19:52:58;20.75;;;6.68;;
32746;SDS011;19118;50.860;13.662;2023-02-05T19:58:00;15.68;;;6.95;;
32746;SDS011;19118;50.860;13.662;2023-02-05T20:03:00;13.50;;;6.22;;
32746;SDS011;19118;50.860;13.662;2023-02-05T20:08:01;20.73;;;6.57;;
32746;SDS011;19118;50.860;13.662;2023-02-05T20:13:01;14.50;;;6.60;;
32746;SDS011;19118;50.860;13.662;2023-02-05T20:18:01;17.00;;;6.40;;
32746;SDS011;19118;50.860;13.662;2023-02-05T20:23:02;19.83;;;5.18;;
32746;SDS011;19118;50.860;13.662;2023-02-05T20:28:02;12.55;;;5.82;;
32746;SDS011;19118;50.860;13.662;2023-02-05T20:33:03;16.35;;;6.20;;
32746;SDS011;19118;50.860;13.662;2023-02-05T20:38:03;8.80;;;4.15;;
32746;SDS011;19118;50.860;13.662;2023-02-05T20:43:04;8.45;;;3.78;;
32746;SDS011;19118;50.860;13.662;2023-02-05T20:48:08;11.43;;;4.82;;
32746;SDS011;19118;50.860;13.662;2023-02-05T20:53:08;14.85;;;5.57;;
32746;SDS011;19118;50.860;13.662;2023-02-05T20:58:08;15.52;;;4.28;;
32746;SDS011;19118;50.860;13.662;2023-02-05T21:03:09;13.15;;;3.83;;
32746;SDS011;19118;50.860;13.662;2023-02-05T21:08:09;6.35;;;3.20;;
32746;SDS011;19118;50.860;13.662;2023-02-05T21:13:09;7.70;;;3.75;;
32746;SDS011;19118;50.860;13.662;2023-02-05T21:18:10;6.70;;;3.33;;
32746;SDS011;19118;50.860;13.662;2023-02-05T21:23:11;8.85;;;3.15;;
32746;SDS011;19118;50.860;13.662;2023-02-05T21:28:12;10.75;;;3.65;;
32746;SDS011;19118;50.860;13.662;2023-02-05T21:33:12;13.23;;;3.20;;
32746;SDS011;19118;50.860;13.662;2023-02-05T21:38:13;7.40;;;2.92;;
32746;SDS011;19118;50.860;13.662;2023-02-05T21:43:13;7.18;;;3.47;;
32746;SDS011;19118;50.860;13.662;2023-02-05T21:48:13;9.40;;;3.15;;
32746;SDS011;19118;50.860;13.662;2023-02-05T21:53:13;8.23;;;3.33;;
32746;SDS011;19118;50.860;13.662;2023-02-05T21:58:15;7.57;;;2.97;;
32746;SDS011;19118;50.860;13.662;2023-02-05T22:03:16;9.43;;;3.80;;
32746;SDS011;19118;50.860;13.662;2023-02-05T22:08:16;10.20;;;4.40;;
32746;SDS011;19118;50.860;13.662;2023-02-05T22:13:16;10.05;;;3.90;;
32746;SDS011;19118;50.860;13.662;2023-02-05T22:18:17;16.25;;;6.90;;
32746;SDS011;19118;50.860;13.662;2023-02-05T22:23:17;18.98;;;5.13;;
32746;SDS011;19118;50.860;13.662;2023-02-05T22:28:18;15.02;;;5.15;;
32746;SDS011;19118;50.860;13.662;2023-02-05T22:33:18;13.57;;;4.60;;
32746;SDS011;19118;50.860;13.662;2023-02-05T22:38:18;11.70;;;4.50;;
32746;SDS011;19118;50.860;13.662;2023-02-05T22:43:19;11.55;;;4.72;;
32746;SDS011;19118;50.860;13.662;2023-02-05T22:48:20;15.52;;;4.97;;
32746;SDS011;19118;50.860;13.662;2023-02-05T22:53:20;14.13;;;4.55;;
32746;SDS011;19118;50.860;13.662;2023-02-05T22:58:20;11.07;;;4.43;;
32746;SDS011;19118;50.860;13.662;2023-02-05T23:03:21;13.68;;;4.43;;
32746;SDS011;19118;50.860;13.662;2023-02-05T23:08:22;9.63;;;4.10;;
32746;SDS011;19118;50.860;13.662;2023-02-05T23:13:22;8.10;;;3.92;;
32746;SDS011;19118;50.860;13.662;2023-02-05T23:18:23;8.93;;;4.28;;
32746;SDS011;19118;50.860;13.662;2023-02-05T23:23:23;9.77;;;4.10;;
32746;SDS011;19118;50.860;13.662;2023-02-05T23:28:23;10.68;;;4.40;;
32746;SDS011;19118;50.860;13.662;2023-02-05T23:33:24;12.75;;;3.65;;
32746;SDS011;19118;50.860;13.662;2023-02-05T23:38:24;11.48;;;4.13;;
32746;SDS011;19118;50.860;13.662;2023-02-05T23:43:26;10.68;;;4.22;;
32746;SDS011;19118;50.860;13.662;2023-02-05T23:48:27;5.90;;;3.85;;
32746;SDS011;19118;50.860;13.662;2023-02-05T23:53:27;8.13;;;3.42;;
32746;SDS011;19118;50.860;13.662;2023-02-05T23:58:28;12.98;;;4.65;;
